De Kalb, MS (39328)

5:43 PM CDT on March 29, 2015 (GMT -0500)
Meridian Naval Air Station | | Change Station
CLOSE
Current Station
Airport
Location: Meridian NAS,
Elevation: 318 ft
Nearby Weather Stations

Elev 318 ft 32.55 °N, 88.56 °W | Updated 47 minutes ago

Clear
Clear
74 °F
Feels Like 74 °F
N
10
Wind Variable Wind from SSE

Today
High -- | Low -- °F
--% Chance of Precip.
Yesterday
High -- | Low -- °F
Precip. -- in
6:46 AM 7:12 PM
Waxing Gibbous, 75% visible
Pressure 30.15 in
Visibility 10.0 miles
Clouds Few 4000 ft
Dew Point 47 °F
Humidity 38%
Rainfall 0.00 in
Snow Depth Not available.
UV 2 out of 12
Pollen 9.70 out of 12
Air Quality Not available.
Flu Activity Not available.
METAR KNMM 292156Z 15009KT 10SM FEW040 22/08 A3015 RMK SLPNO T02320081

More Conditions Fewer Conditions

Pressure 30.15 in
Visibility 10.0 miles
Clouds Few 4000 ft
Dew Point 47 °F
Humidity 38%
Rainfall 0.00 in
Snow Depth Not available.
UV 2 out of 12
Pollen 9.70 out of 12
Air Quality Not available.
Flu Activity Not available.
METAR KNMM 292156Z 15009KT 10SM FEW040 22/08 A3015 RMK SLPNO T02320081

More Conditions Fewer Conditions

10-Day Weather Forecast

Almanac

Astronomy

Mar. 29, 2015 Rise Set
Actual Time
Civil Twilight
Nautical Twilight
Astronomical Twilight
Moon
Length of Visible Light
Length of Day
Tomorrow will be .
, % of the Moon is Illuminated

Today's Extremes

State Highs State Lows

Community

WunderPhotos

Upload Photos

1,809,376 photos uploaded!

WunderBlogs® & News

Nearby

Air Quality

  Air Quality AQ Index Pollutant
Not available.

Snow Depth

Station Depth Elevation

Earthquake Activity

City Distance Mag. Time & Date
Minimum magnitude displayed is 2.5.

Coastal Water Temperatures

Place Temperature

Stations

Nearby Weather Stations

Station Location Temp. Windchill Dew Point Humidity Wind Precip. Elev Updated Type